sensor_id;sensor_type;location;lat;lon;timestamp;pressure;altitude;pressure_sealevel;temperature;humidity
29383;BME280;16365;51.598;7.668;2023-07-02T00:02:06;100003.88;;;24.25;47.96
29383;BME280;16365;51.598;7.668;2023-07-02T00:04:33;100001.47;;;24.23;48.01
29383;BME280;16365;51.598;7.668;2023-07-02T00:07:00;100016.44;;;24.24;48.01
29383;BME280;16365;51.598;7.668;2023-07-02T00:09:28;100001.47;;;24.23;48.03
29383;BME280;16365;51.598;7.668;2023-07-02T00:11:55;100004.72;;;24.22;47.93
29383;BME280;16365;51.598;7.668;2023-07-02T00:14:21;100005.19;;;24.20;48.03
29383;BME280;16365;51.598;7.668;2023-07-02T00:16:49;100004.84;;;24.18;47.99
29383;BME280;16365;51.598;7.668;2023-07-02T00:19:16;100001.63;;;24.16;48.12
29383;BME280;16365;51.598;7.668;2023-07-02T00:21:43;99997.19;;;24.15;47.95
29383;BME280;16365;51.598;7.668;2023-07-02T00:24:10;100002.06;;;24.15;48.09
29383;BME280;16365;51.598;7.668;2023-07-02T00:26:37;100000.47;;;24.14;48.04
29383;BME280;16365;51.598;7.668;2023-07-02T00:29:08;99999.69;;;24.13;48.22
29383;BME280;16365;51.598;7.668;2023-07-02T00:31:35;100002.53;;;24.13;48.18
29383;BME280;16365;51.598;7.668;2023-07-02T00:34:03;99993.19;;;24.13;48.05
29383;BME280;16365;51.598;7.668;2023-07-02T00:36:31;99996.03;;;24.13;48.15
29383;BME280;16365;51.598;7.668;2023-07-02T00:38:58;100003.31;;;24.14;48.06
29383;BME280;16365;51.598;7.668;2023-07-02T00:41:26;99997.28;;;24.11;48.04
29383;BME280;16365;51.598;7.668;2023-07-02T00:43:52;100002.16;;;24.11;47.90
29383;BME280;16365;51.598;7.668;2023-07-02T00:46:23;100002.59;;;24.09;47.97
29383;BME280;16365;51.598;7.668;2023-07-02T00:48:54;99996.13;;;24.09;48.08
29383;BME280;16365;51.598;7.668;2023-07-02T00:51:25;99991.72;;;24.08;48.06
29383;BME280;16365;51.598;7.668;2023-07-02T00:53:54;99993.72;;;24.07;48.07
29383;BME280;16365;51.598;7.668;2023-07-02T00:56:21;99993.72;;;24.07;47.93
29383;BME280;16365;51.598;7.668;2023-07-02T00:58:50;99994.44;;;24.11;47.91
29383;BME280;16365;51.598;7.668;2023-07-02T01:01:19;99989.22;;;24.10;47.85
29383;BME280;16365;51.598;7.668;2023-07-02T01:04:00;99995.41;;;24.05;48.25
29383;BME280;16365;51.598;7.668;2023-07-02T01:06:33;99992.94;;;24.07;47.99
29383;BME280;16365;51.598;7.668;2023-07-02T01:09:05;99993.81;;;24.04;48.05
29383;BME280;16365;51.598;7.668;2023-07-02T01:11:42;99989.03;;;24.01;48.30
29383;BME280;16365;51.598;7.668;2023-07-02T01:14:22;99990.25;;;24.00;48.18
29383;BME280;16365;51.598;7.668;2023-07-02T01:16:52;99983.34;;;24.01;48.05
29383;BME280;16365;51.598;7.668;2023-07-02T01:22:08;99981.19;;;24.08;47.82
29383;BME280;16365;51.598;7.668;2023-07-02T01:24:36;99983.63;;;24.06;47.70
29383;BME280;16365;51.598;7.668;2023-07-02T01:27:05;99983.63;;;24.06;47.75
29383;BME280;16365;51.598;7.668;2023-07-02T01:29:31;99979.66;;;24.04;47.72
29383;BME280;16365;51.598;7.668;2023-07-02T01:31:58;99982.13;;;24.02;47.82
29383;BME280;16365;51.598;7.668;2023-07-02T01:34:26;99978.13;;;23.99;47.78
29383;BME280;16365;51.598;7.668;2023-07-02T01:36:53;99966.81;;;23.99;47.74
29383;BME280;16365;51.598;7.668;2023-07-02T01:39:20;99949.81;;;23.99;47.78
29383;BME280;16365;51.598;7.668;2023-07-02T01:41:53;99944.56;;;23.98;47.75
29383;BME280;16365;51.598;7.668;2023-07-02T01:44:20;99948.22;;;23.98;47.71
29383;BME280;16365;51.598;7.668;2023-07-02T01:46:48;99953.06;;;23.98;47.62
29383;BME280;16365;51.598;7.668;2023-07-02T01:49:18;99955.09;;;23.97;47.61
29383;BME280;16365;51.598;7.668;2023-07-02T01:51:52;99953.97;;;23.95;47.67
29383;BME280;16365;51.598;7.668;2023-07-02T01:54:22;99957.16;;;23.97;47.51
29383;BME280;16365;51.598;7.668;2023-07-02T01:56:49;99972.09;;;23.97;47.35
29383;BME280;16365;51.598;7.668;2023-07-02T01:59:17;99976.16;;;23.96;47.39
29383;BME280;16365;51.598;7.668;2023-07-02T02:01:44;99970.16;;;23.94;47.39
29383;BME280;16365;51.598;7.668;2023-07-02T02:04:11;99979.44;;;23.95;47.35
29383;BME280;16365;51.598;7.668;2023-07-02T02:06:38;99994.03;;;23.93;47.36
29383;BME280;16365;51.598;7.668;2023-07-02T02:09:06;99996.50;;;23.91;47.33
29383;BME280;16365;51.598;7.668;2023-07-02T02:11:33;100001.44;;;23.87;47.16
29383;BME280;16365;51.598;7.668;2023-07-02T02:14:00;100005.56;;;23.82;47.14
29383;BME280;16365;51.598;7.668;2023-07-02T02:16:30;100011.34;;;23.79;47.26
29383;BME280;16365;51.598;7.668;2023-07-02T02:18:57;100010.22;;;23.73;47.34
29383;BME280;16365;51.598;7.668;2023-07-02T02:21:23;100006.66;;;23.69;47.47
29383;BME280;16365;51.598;7.668;2023-07-02T02:23:50;100004.72;;;23.66;47.51
29383;BME280;16365;51.598;7.668;2023-07-02T02:26:16;100006.75;;;23.65;47.58
29383;BME280;16365;51.598;7.668;2023-07-02T02:28:43;100010.00;;;23.64;47.49
29383;BME280;16365;51.598;7.668;2023-07-02T02:31:10;100007.97;;;23.64;47.67
29383;BME280;16365;51.598;7.668;2023-07-02T02:33:37;100003.97;;;23.62;47.56
29383;BME280;16365;51.598;7.668;2023-07-02T02:36:04;100007.59;;;23.62;47.74
29383;BME280;16365;51.598;7.668;2023-07-02T02:38:31;99997.50;;;23.61;47.52
29383;BME280;16365;51.598;7.668;2023-07-02T02:40:57;100001.94;;;23.62;47.65
29383;BME280;16365;51.598;7.668;2023-07-02T02:43:24;100014.03;;;23.63;47.53
29383;BME280;16365;51.598;7.668;2023-07-02T02:45:51;100004.34;;;23.64;47.46
29383;BME280;16365;51.598;7.668;2023-07-02T02:48:17;100002.72;;;23.63;47.34
29383;BME280;16365;51.598;7.668;2023-07-02T02:50:45;99998.75;;;23.60;47.35
29383;BME280;16365;51.598;7.668;2023-07-02T02:53:12;100006.00;;;23.61;47.44
29383;BME280;16365;51.598;7.668;2023-07-02T02:55:38;100006.44;;;23.59;47.37
29383;BME280;16365;51.598;7.668;2023-07-02T02:58:05;100007.66;;;23.58;47.26
29383;BME280;16365;51.598;7.668;2023-07-02T03:00:32;100005.25;;;23.57;47.17
29383;BME280;16365;51.598;7.668;2023-07-02T03:02:58;100001.63;;;23.56;47.13
29383;BME280;16365;51.598;7.668;2023-07-02T03:05:25;100006.50;;;23.56;47.08
29383;BME280;16365;51.598;7.668;2023-07-02T03:07:52;100004.53;;;23.53;47.09
29383;BME280;16365;51.598;7.668;2023-07-02T03:10:19;100004.53;;;23.53;47.06
29383;BME280;16365;51.598;7.668;2023-07-02T03:12:47;100005.41;;;23.50;47.12
29383;BME280;16365;51.598;7.668;2023-07-02T03:15:14;100010.25;;;23.49;46.88
29383;BME280;16365;51.598;7.668;2023-07-02T03:17:40;100007.88;;;23.48;46.92
29383;BME280;16365;51.598;7.668;2023-07-02T03:20:07;100012.38;;;23.45;46.79
29383;BME280;16365;51.598;7.668;2023-07-02T03:22:36;100018.44;;;23.44;47.01
29383;BME280;16365;51.598;7.668;2023-07-02T03:25:03;100013.66;;;23.41;46.80
29383;BME280;16365;51.598;7.668;2023-07-02T03:27:30;100010.03;;;23.40;46.72
29383;BME280;16365;51.598;7.668;2023-07-02T03:29:57;100014.09;;;23.39;46.81
29383;BME280;16365;51.598;7.668;2023-07-02T03:32:26;100022.22;;;23.37;46.78
29383;BME280;16365;51.598;7.668;2023-07-02T03:34:53;100021.84;;;23.35;47.03
29383;BME280;16365;51.598;7.668;2023-07-02T03:37:19;100031.16;;;23.36;46.71
29383;BME280;16365;51.598;7.668;2023-07-02T03:39:47;100032.34;;;23.34;46.88
29383;BME280;16365;51.598;7.668;2023-07-02T03:42:14;100038.00;;;23.34;46.87
29383;BME280;16365;51.598;7.668;2023-07-02T03:44:40;100046.50;;;23.34;46.70
29383;BME280;16365;51.598;7.668;2023-07-02T03:47:10;100047.72;;;23.33;46.62
29383;BME280;16365;51.598;7.668;2023-07-02T03:49:38;100055.44;;;23.33;46.65
29383;BME280;16365;51.598;7.668;2023-07-02T03:52:05;100052.94;;;23.35;46.39
29383;BME280;16365;51.598;7.668;2023-07-02T03:54:32;100050.22;;;23.31;46.47
29383;BME280;16365;51.598;7.668;2023-07-02T03:56:58;100055.13;;;23.27;46.37
29383;BME280;16365;51.598;7.668;2023-07-02T03:59:25;100049.53;;;23.24;46.44
29383;BME280;16365;51.598;7.668;2023-07-02T04:01:51;100059.69;;;23.21;46.54
29383;BME280;16365;51.598;7.668;2023-07-02T04:04:18;100067.34;;;23.21;46.41
29383;BME280;16365;51.598;7.668;2023-07-02T04:06:44;100077.06;;;23.20;46.47
29383;BME280;16365;51.598;7.668;2023-07-02T04:09:11;100068.66;;;23.16;46.41
29383;BME280;16365;51.598;7.668;2023-07-02T04:11:38;100075.53;;;23.15;46.65
29383;BME280;16365;51.598;7.668;2023-07-02T04:14:04;100080.81;;;23.13;46.47
29383;BME280;16365;51.598;7.668;2023-07-02T04:16:31;100070.75;;;23.12;46.53
29383;BME280;16365;51.598;7.668;2023-07-02T04:18:57;100076.81;;;23.11;46.64
29383;BME280;16365;51.598;7.668;2023-07-02T04:21:25;100078.03;;;23.09;46.65
29383;BME280;16365;51.598;7.668;2023-07-02T04:23:51;100090.94;;;23.11;46.67
29383;BME280;16365;51.598;7.668;2023-07-02T04:26:19;100085.72;;;23.09;46.64
29383;BME280;16365;51.598;7.668;2023-07-02T04:29:09;100082.47;;;23.11;46.66
29383;BME280;16365;51.598;7.668;2023-07-02T04:31:35;100092.56;;;23.12;46.78
29383;BME280;16365;51.598;7.668;2023-07-02T04:34:03;100099.81;;;23.13;46.93
29383;BME280;16365;51.598;7.668;2023-07-02T04:36:29;100094.53;;;23.15;46.73
29383;BME280;16365;51.598;7.668;2023-07-02T04:38:56;100085.63;;;23.16;46.84
29383;BME280;16365;51.598;7.668;2023-07-02T04:41:22;100094.91;;;23.17;46.73
29383;BME280;16365;51.598;7.668;2023-07-02T04:43:49;100103.75;;;23.19;46.82
29383;BME280;16365;51.598;7.668;2023-07-02T04:46:16;100105.34;;;23.20;46.78
29383;BME280;16365;51.598;7.668;2023-07-02T04:48:44;100107.03;;;23.17;46.56
29383;BME280;16365;51.598;7.668;2023-07-02T04:51:11;100113.09;;;23.16;46.80
29383;BME280;16365;51.598;7.668;2023-07-02T04:53:38;100108.25;;;23.16;46.86
29383;BME280;16365;51.598;7.668;2023-07-02T04:56:04;100120.38;;;23.17;46.92
29383;BME280;16365;51.598;7.668;2023-07-02T04:58:34;100121.16;;;23.17;46.82
29383;BME280;16365;51.598;7.668;2023-07-02T05:01:00;100119.13;;;23.18;46.89
29383;BME280;16365;51.598;7.668;2023-07-02T05:03:27;100120.72;;;23.19;46.79
29383;BME280;16365;51.598;7.668;2023-07-02T05:05:53;100122.75;;;23.18;46.78
29383;BME280;16365;51.598;7.668;2023-07-02T05:08:20;100124.34;;;23.19;46.96
29383;BME280;16365;51.598;7.668;2023-07-02T05:10:46;100130.38;;;23.21;47.12
29383;BME280;16365;51.598;7.668;2023-07-02T05:13:13;100130.75;;;23.23;47.11
29383;BME280;16365;51.598;7.668;2023-07-02T05:15:40;100124.66;;;23.25;46.96
29383;BME280;16365;51.598;7.668;2023-07-02T05:18:07;100129.09;;;23.26;46.98
29383;BME280;16365;51.598;7.668;2023-07-02T05:20:34;100133.53;;;23.27;46.84
29383;BME280;16365;51.598;7.668;2023-07-02T05:23:00;100138.31;;;23.30;46.88
29383;BME280;16365;51.598;7.668;2023-07-02T05:25:26;100142.75;;;23.31;46.76
29383;BME280;16365;51.598;7.668;2023-07-02T05:27:53;100140.34;;;23.29;46.59
29383;BME280;16365;51.598;7.668;2023-07-02T05:30:20;100145.59;;;23.31;46.89
29383;BME280;16365;51.598;7.668;2023-07-02T05:32:46;100144.75;;;23.30;46.89
29383;BME280;16365;51.598;7.668;2023-07-02T05:35:13;100143.56;;;23.31;46.68
29383;BME280;16365;51.598;7.668;2023-07-02T05:37:39;100146.38;;;23.31;46.70
29383;BME280;16365;51.598;7.668;2023-07-02T05:40:06;100154.06;;;23.31;46.69
29383;BME280;16365;51.598;7.668;2023-07-02T05:42:34;100147.97;;;23.32;46.89
29383;BME280;16365;51.598;7.668;2023-07-02T05:45:00;100153.63;;;23.32;46.98
29383;BME280;16365;51.598;7.668;2023-07-02T05:47:27;100159.66;;;23.34;46.59
29383;BME280;16365;51.598;7.668;2023-07-02T05:49:56;100157.22;;;23.37;46.59
29383;BME280;16365;51.598;7.668;2023-07-02T05:52:22;100160.84;;;23.37;46.71
29383;BME280;16365;51.598;7.668;2023-07-02T05:54:49;100155.97;;;23.38;46.47
29383;BME280;16365;51.598;7.668;2023-07-02T05:57:15;100162.44;;;23.38;46.72
29383;BME280;16365;51.598;7.668;2023-07-02T05:59:42;100157.56;;;23.39;46.69
29383;BME280;16365;51.598;7.668;2023-07-02T06:02:08;100162.78;;;23.40;46.84
29383;BME280;16365;51.598;7.668;2023-07-02T06:04:35;100164.41;;;23.41;46.48
29383;BME280;16365;51.598;7.668;2023-07-02T06:07:01;100173.25;;;23.43;46.63
29383;BME280;16365;51.598;7.668;2023-07-02T06:09:28;100179.72;;;23.44;46.53
29383;BME280;16365;51.598;7.668;2023-07-02T06:11:55;100176.09;;;23.43;46.41
29383;BME280;16365;51.598;7.668;2023-07-02T06:14:22;100179.72;;;23.44;46.74
29383;BME280;16365;51.598;7.668;2023-07-02T06:16:49;100173.66;;;23.45;46.73
29383;BME280;16365;51.598;7.668;2023-07-02T06:19:16;100176.03;;;23.47;46.57
29383;BME280;16365;51.598;7.668;2023-07-02T06:21:43;100176.84;;;23.47;46.64
29383;BME280;16365;51.598;7.668;2023-07-02T06:24:10;100172.78;;;23.48;46.47
29383;BME280;16365;51.598;7.668;2023-07-02T06:26:36;100179.63;;;23.51;46.79
29383;BME280;16365;51.598;7.668;2023-07-02T06:29:03;100177.94;;;23.53;47.01
29383;BME280;16365;51.598;7.668;2023-07-02T06:31:29;100178.69;;;23.57;46.72
29383;BME280;16365;51.598;7.668;2023-07-02T06:33:56;100185.09;;;23.62;46.65
29383;BME280;16365;51.598;7.668;2023-07-02T06:36:23;100185.88;;;23.66;46.92
29383;BME280;16365;51.598;7.668;2023-07-02T06:38:49;100183.78;;;23.70;46.71
29383;BME280;16365;51.598;7.668;2023-07-02T06:41:18;100185.66;;;23.76;46.51
29383;BME280;16365;51.598;7.668;2023-07-02T06:43:45;100184.38;;;23.81;46.61
29383;BME280;16365;51.598;7.668;2023-07-02T06:46:12;100192.38;;;23.86;46.11
29383;BME280;16365;51.598;7.668;2023-07-02T06:48:39;100194.72;;;23.91;45.86
29383;BME280;16365;51.598;7.668;2023-07-02T06:51:05;100203.16;;;23.95;46.07
29383;BME280;16365;51.598;7.668;2023-07-02T06:53:33;100201.47;;;23.97;45.90
29383;BME280;16365;51.598;7.668;2023-07-02T06:56:00;100203.88;;;23.99;45.19
29383;BME280;16365;51.598;7.668;2023-07-02T06:58:27;100207.06;;;24.01;45.32
29383;BME280;16365;51.598;7.668;2023-07-02T07:00:53;100209.47;;;24.02;45.00
29383;BME280;16365;51.598;7.668;2023-07-02T07:03:22;100208.66;;;24.02;45.02
29383;BME280;16365;51.598;7.668;2023-07-02T07:05:49;100207.81;;;24.05;44.66
29383;BME280;16365;51.598;7.668;2023-07-02T07:08:15;100210.66;;;24.05;44.45
29383;BME280;16365;51.598;7.668;2023-07-02T07:10:42;100213.81;;;24.07;43.90
29383;BME280;16365;51.598;7.668;2023-07-02T07:13:08;100222.31;;;24.07;43.45
29383;BME280;16365;51.598;7.668;2023-07-02T07:15:37;100213.03;;;24.06;42.18
29383;BME280;16365;51.598;7.668;2023-07-02T07:18:04;100211.00;;;24.07;41.50
29383;BME280;16365;51.598;7.668;2023-07-02T07:20:33;100217.47;;;24.07;41.90
29383;BME280;16365;51.598;7.668;2023-07-02T07:23:02;100215.00;;;24.09;41.63
29383;BME280;16365;51.598;7.668;2023-07-02T07:25:29;100222.28;;;24.10;41.73
29383;BME280;16365;51.598;7.668;2023-07-02T07:27:55;100214.13;;;24.13;41.74
29383;BME280;16365;51.598;7.668;2023-07-02T07:30:22;100214.88;;;24.17;41.24
29383;BME280;16365;51.598;7.668;2023-07-02T07:32:50;100227.38;;;24.19;40.71
29383;BME280;16365;51.598;7.668;2023-07-02T07:35:17;100225.28;;;24.23;39.88
29383;BME280;16365;51.598;7.668;2023-07-02T07:37:44;100228.84;;;24.27;39.87
29383;BME280;16365;51.598;7.668;2023-07-02T07:40:11;100232.03;;;24.29;39.60
29383;BME280;16365;51.598;7.668;2023-07-02T07:42:47;100233.19;;;24.32;38.34
29383;BME280;16365;51.598;7.668;2023-07-02T07:45:14;100227.06;;;24.37;39.55
29383;BME280;16365;51.598;7.668;2023-07-02T07:47:40;100229.03;;;24.40;39.52
29383;BME280;16365;51.598;7.668;2023-07-02T07:50:07;100227.78;;;24.41;39.79
29383;BME280;16365;51.598;7.668;2023-07-02T07:52:44;100235.88;;;24.43;39.17
29383;BME280;16365;51.598;7.668;2023-07-02T07:55:13;100233.31;;;24.48;39.04
29383;BME280;16365;51.598;7.668;2023-07-02T07:57:41;100224.66;;;24.55;39.47
29383;BME280;16365;51.598;7.668;2023-07-02T08:00:08;100233.84;;;24.63;39.12
29383;BME280;16365;51.598;7.668;2023-07-02T08:02:36;100239.78;;;24.69;39.26
29383;BME280;16365;51.598;7.668;2023-07-02T08:05:03;100244.16;;;24.73;38.78
29383;BME280;16365;51.598;7.668;2023-07-02T08:07:31;100235.56;;;24.77;37.92
29383;BME280;16365;51.598;7.668;2023-07-02T08:09:58;100238.34;;;24.80;37.54
29383;BME280;16365;51.598;7.668;2023-07-02T08:12:24;100244.38;;;24.82;37.25
29383;BME280;16365;51.598;7.668;2023-07-02T08:14:53;100247.13;;;24.86;36.86
29383;BME280;16365;51.598;7.668;2023-07-02T08:17:19;100256.38;;;24.90;37.22
29383;BME280;16365;51.598;7.668;2023-07-02T08:19:46;100255.84;;;24.95;36.44
29383;BME280;16365;51.598;7.668;2023-07-02T08:22:13;100251.25;;;25.01;36.63
29383;BME280;16365;51.598;7.668;2023-07-02T08:24:39;100268.53;;;25.10;36.17
29383;BME280;16365;51.598;7.668;2023-07-02T08:27:09;100261.00;;;25.20;36.20
29383;BME280;16365;51.598;7.668;2023-07-02T08:29:36;100255.53;;;25.29;36.77
29383;BME280;16365;51.598;7.668;2023-07-02T08:32:03;100267.50;;;25.37;36.07
29383;BME280;16365;51.598;7.668;2023-07-02T08:34:30;100268.16;;;25.45;35.63
29383;BME280;16365;51.598;7.668;2023-07-02T08:36:57;100267.56;;;25.53;35.57
29383;BME280;16365;51.598;7.668;2023-07-02T08:39:23;100271.00;;;25.61;35.27
29383;BME280;16365;51.598;7.668;2023-07-02T08:41:50;100263.13;;;25.69;34.76
29383;BME280;16365;51.598;7.668;2023-07-02T08:44:19;100271.09;;;25.74;33.95
29383;BME280;16365;51.598;7.668;2023-07-02T08:46:46;100270.59;;;25.79;34.20
29383;BME280;16365;51.598;7.668;2023-07-02T08:49:17;100274.50;;;25.85;34.37
29383;BME280;16365;51.598;7.668;2023-07-02T08:51:45;100278.06;;;25.89;34.13
29383;BME280;16365;51.598;7.668;2023-07-02T08:54:11;100279.91;;;25.96;34.50
29383;BME280;16365;51.598;7.668;2023-07-02T08:56:38;100287.09;;;26.00;33.59
29383;BME280;16365;51.598;7.668;2023-07-02T08:59:09;100290.31;;;26.02;33.08
29383;BME280;16365;51.598;7.668;2023-07-02T09:01:49;100287.81;;;26.04;32.59
29383;BME280;16365;51.598;7.668;2023-07-02T09:06:50;100294.75;;;26.03;32.41
29383;BME280;16365;51.598;7.668;2023-07-02T09:09:17;100300.88;;;26.02;33.13
29383;BME280;16365;51.598;7.668;2023-07-02T09:11:52;100294.91;;;25.96;32.48
29383;BME280;16365;51.598;7.668;2023-07-02T09:14:30;100301.50;;;25.93;31.78
29383;BME280;16365;51.598;7.668;2023-07-02T09:17:07;100304.75;;;25.92;32.42
29383;BME280;16365;51.598;7.668;2023-07-02T09:19:49;100301.25;;;25.87;32.57
29383;BME280;16365;51.598;7.668;2023-07-02T09:22:19;100298.03;;;25.85;32.68
29383;BME280;16365;51.598;7.668;2023-07-02T09:24:59;100294.13;;;25.79;32.93
29383;BME280;16365;51.598;7.668;2023-07-02T09:27:43;100305.94;;;25.78;33.25
29383;BME280;16365;51.598;7.668;2023-07-02T09:30:12;100299.00;;;25.79;33.16
29383;BME280;16365;51.598;7.668;2023-07-02T09:32:40;100302.31;;;25.77;33.25
29383;BME280;16365;51.598;7.668;2023-07-02T09:35:09;100304.38;;;25.73;32.88
29383;BME280;16365;51.598;7.668;2023-07-02T09:37:36;100304.81;;;25.72;32.92
29383;BME280;16365;51.598;7.668;2023-07-02T09:40:07;100298.00;;;25.69;32.74
29383;BME280;16365;51.598;7.668;2023-07-02T09:42:36;100299.66;;;25.67;32.51
29383;BME280;16365;51.598;7.668;2023-07-02T09:45:07;100304.63;;;25.62;32.14
29383;BME280;16365;51.598;7.668;2023-07-02T09:47:39;100311.19;;;25.59;32.40
29383;BME280;16365;51.598;7.668;2023-07-02T09:50:17;100308.34;;;25.59;32.21
29383;BME280;16365;51.598;7.668;2023-07-02T09:52:46;100294.69;;;25.54;32.34
29383;BME280;16365;51.598;7.668;2023-07-02T09:55:14;100309.75;;;25.51;31.92
29383;BME280;16365;51.598;7.668;2023-07-02T09:57:43;100303.72;;;25.49;31.93
29383;BME280;16365;51.598;7.668;2023-07-02T10:00:10;100304.06;;;25.51;32.31
29383;BME280;16365;51.598;7.668;2023-07-02T10:02:37;100300.78;;;25.53;31.93
29383;BME280;16365;51.598;7.668;2023-07-02T10:05:04;100301.97;;;25.55;32.35
29383;BME280;16365;51.598;7.668;2023-07-02T10:07:31;100308.81;;;25.58;31.88
29383;BME280;16365;51.598;7.668;2023-07-02T10:10:01;100310.31;;;25.62;31.95
29383;BME280;16365;51.598;7.668;2023-07-02T10:12:29;100313.84;;;25.67;31.81
29383;BME280;16365;51.598;7.668;2023-07-02T10:14:57;100303.22;;;25.71;30.96
29383;BME280;16365;51.598;7.668;2023-07-02T10:19:59;100310.63;;;25.84;31.58
29383;BME280;16365;51.598;7.668;2023-07-02T10:22:26;100307.97;;;25.94;31.64
29383;BME280;16365;51.598;7.668;2023-07-02T10:24:55;100309.41;;;26.02;31.44
29383;BME280;16365;51.598;7.668;2023-07-02T10:27:37;100310.00;;;26.09;30.91
29383;BME280;16365;51.598;7.668;2023-07-02T10:30:06;100313.72;;;26.23;31.20
29383;BME280;16365;51.598;7.668;2023-07-02T10:32:34;100314.38;;;26.30;31.10
29383;BME280;16365;51.598;7.668;2023-07-02T10:35:02;100313.81;;;26.35;30.79
29383;BME280;16365;51.598;7.668;2023-07-02T10:37:39;100305.97;;;26.39;31.11
29383;BME280;16365;51.598;7.668;2023-07-02T10:40:08;100312.91;;;26.38;30.80
29383;BME280;16365;51.598;7.668;2023-07-02T10:42:49;100323.16;;;26.36;30.52
29383;BME280;16365;51.598;7.668;2023-07-02T10:45:16;100307.69;;;26.37;30.53
29383;BME280;16365;51.598;7.668;2023-07-02T10:47:43;100319.94;;;26.34;30.18
29383;BME280;16365;51.598;7.668;2023-07-02T10:50:17;100324.09;;;26.29;30.33
29383;BME280;16365;51.598;7.668;2023-07-02T10:52:44;100323.31;;;26.29;31.06
29383;BME280;16365;51.598;7.668;2023-07-02T10:55:16;100318.97;;;26.24;30.50
29383;BME280;16365;51.598;7.668;2023-07-02T10:57:43;100326.25;;;26.25;30.53
29383;BME280;16365;51.598;7.668;2023-07-02T11:00:10;100322.59;;;26.25;30.61
29383;BME280;16365;51.598;7.668;2023-07-02T11:02:38;100314.06;;;26.25;30.62
29383;BME280;16365;51.598;7.668;2023-07-02T11:05:05;100329.53;;;26.24;30.36
29383;BME280;16365;51.598;7.668;2023-07-02T11:07:41;100320.56;;;26.25;29.94
29383;BME280;16365;51.598;7.668;2023-07-02T11:10:09;100321.38;;;26.26;30.22
29383;BME280;16365;51.598;7.668;2023-07-02T11:12:36;100312.84;;;26.26;30.64
29383;BME280;16365;51.598;7.668;2023-07-02T11:15:13;100325.44;;;26.25;30.20
29383;BME280;16365;51.598;7.668;2023-07-02T11:17:40;100320.03;;;26.30;30.26
29383;BME280;16365;51.598;7.668;2023-07-02T11:20:09;100324.03;;;26.33;30.36
29383;BME280;16365;51.598;7.668;2023-07-02T11:22:38;100334.06;;;26.37;30.05
29383;BME280;16365;51.598;7.668;2023-07-02T11:25:16;100323.47;;;26.38;29.66
29383;BME280;16365;51.598;7.668;2023-07-02T11:27:43;100332.28;;;26.44;30.02
29383;BME280;16365;51.598;7.668;2023-07-02T11:30:10;100333.09;;;26.44;29.96
29383;BME280;16365;51.598;7.668;2023-07-02T11:32:51;100336.38;;;26.43;29.44
29383;BME280;16365;51.598;7.668;2023-07-02T11:35:19;100324.13;;;26.46;29.96
29383;BME280;16365;51.598;7.668;2023-07-02T11:37:46;100329.81;;;26.46;30.19
29383;BME280;16365;51.598;7.668;2023-07-02T11:40:17;100325.34;;;26.45;29.98
29383;BME280;16365;51.598;7.668;2023-07-02T11:42:44;100332.22;;;26.47;30.34
29383;BME280;16365;51.598;7.668;2023-07-02T11:45:10;100337.09;;;26.47;30.60
29383;BME280;16365;51.598;7.668;2023-07-02T11:47:38;100340.28;;;26.49;30.36
29383;BME280;16365;51.598;7.668;2023-07-02T11:50:06;100334.59;;;26.49;30.09
29383;BME280;16365;51.598;7.668;2023-07-02T11:52:51;100335.06;;;26.47;29.62
29383;BME280;16365;51.598;7.668;2023-07-02T11:55:18;100343.25;;;26.45;30.19
29383;BME280;16365;51.598;7.668;2023-07-02T11:57:44;100340.03;;;26.43;30.32
29383;BME280;16365;51.598;7.668;2023-07-02T12:00:13;100332.72;;;26.42;30.08
29383;BME280;16365;51.598;7.668;2023-07-02T12:02:40;100342.50;;;26.41;30.14
29383;BME280;16365;51.598;7.668;2023-07-02T12:05:08;100340.47;;;26.42;29.88
29383;BME280;16365;51.598;7.668;2023-07-02T12:07:38;100352.19;;;26.44;30.18
29383;BME280;16365;51.598;7.668;2023-07-02T12:10:06;100350.16;;;26.44;29.51
29383;BME280;16365;51.598;7.668;2023-07-02T12:12:33;100355.84;;;26.44;29.95
29383;BME280;16365;51.598;7.668;2023-07-02T12:14:59;100345.72;;;26.43;29.75
29383;BME280;16365;51.598;7.668;2023-07-02T12:17:26;100345.72;;;26.43;29.45
29383;BME280;16365;51.598;7.668;2023-07-02T12:19:52;100353.00;;;26.44;29.53
29383;BME280;16365;51.598;7.668;2023-07-02T12:22:19;100350.16;;;26.44;29.74
29383;BME280;16365;51.598;7.668;2023-07-02T12:24:48;100340.41;;;26.45;29.45
29383;BME280;16365;51.598;7.668;2023-07-02T12:27:16;100336.66;;;26.48;29.11
29383;BME280;16365;51.598;7.668;2023-07-02T12:29:43;100343.91;;;26.49;28.86
29383;BME280;16365;51.598;7.668;2023-07-02T12:32:09;100340.19;;;26.52;28.81
29383;BME280;16365;51.598;7.668;2023-07-02T12:34:36;100340.19;;;26.52;29.17
29383;BME280;16365;51.598;7.668;2023-07-02T12:37:03;100338.06;;;26.56;28.60
29383;BME280;16365;51.598;7.668;2023-07-02T12:39:30;100337.97;;;26.60;28.48
29383;BME280;16365;51.598;7.668;2023-07-02T12:41:57;100344.34;;;26.64;28.93
29383;BME280;16365;51.598;7.668;2023-07-02T12:44:24;100340.16;;;26.69;28.30
29383;BME280;16365;51.598;7.668;2023-07-02T12:46:50;100340.84;;;26.73;28.25
29383;BME280;16365;51.598;7.668;2023-07-02T12:49:17;100337.47;;;26.78;28.34
29383;BME280;16365;51.598;7.668;2023-07-02T12:51:44;100352.84;;;26.80;28.22
29383;BME280;16365;51.598;7.668;2023-07-02T12:54:11;100347.94;;;26.81;27.82
29383;BME280;16365;51.598;7.668;2023-07-02T12:56:37;100351.13;;;26.83;28.33
29383;BME280;16365;51.598;7.668;2023-07-02T12:59:03;100350.34;;;26.82;28.10
29383;BME280;16365;51.598;7.668;2023-07-02T13:01:30;100353.97;;;26.83;27.90
29383;BME280;16365;51.598;7.668;2023-07-02T13:03:57;100352.38;;;26.82;27.79